メインページ
METAR-TAF:

METAR-TAF

空港 :

新潟空港

新潟, 日本

緯度: 37-57N, 経度: 139-07E, 海抜: 1m

現時点の気象観測

当レポートは1時間12分前の12:00(UTC)に作成
南/南東の風 4kt
気温 16°C
湿度 82%
気圧 1011 hPa
視程10km以上
高度3000ftの雲はほとんどない
高度7000ftの雲は散在している
千切れ雲あり

METAR: RJSN 161200Z 15004KT 9999 FEW030 SCT070 BKN/// 16/13 Q1011

時間: 22:12 (13:12 UTC)

予報

当レポートは1時間12分前の12:00(UTC)に作成
予報は16日の 12時(UTC)から 17日の 18時(UTC)まで有効
東/北東の風 4kt
視程10km以上
高度800ftの雲はほとんどない
高度2000ftの千切れ雲あり
16日の 12時(UTC)から 16日の 15時(UTC)まで一時的に
視程: 3000m
高度600ftの雲はほとんどない
高度800ftの千切れ雲あり
高度2000ftの雲はほとんどない, 積乱雲.
激しい雷雨, 雨, 靄
16日の 13時(UTC)から 16日の 15時(UTC)まで徐々に
の風 18kt
16日の 22時(UTC)から 17日の 00時(UTC)まで徐々に
東/北東の風 8kt

TAF: RJSN 161200Z 1612/1718 06004KT 9999 FEW008 BKN020 TEMPO 1612/1615 3000 TSRA BR FEW006 BKN008 FEW020CB BECMG 1613/1615 01018KT BECMG 1622/1700 06008KT

4,000以上の空港の気象観測と天気予報(METAR報とTAF報)

利用可能な観測所は地図上に黄色い丸と赤い丸で示す。

丸の上にカーソルを重ねると観測所名を参照できる。

次にクリックすると気象観測と天気予報を参照できる。

マップの切り替え:黒色「×」印の緑ボタンをクリックして拡大、「-」印の緑ボタンをクリックして縮小、緑色の三角印をクリックして隣りの地図に切り替え


METAR-TAF: